sensor_id;sensor_type;location;lat;lon;timestamp;P1;durP1;ratioP1;P2;durP2;ratioP2
21213;SDS011;10764;50.850;2.904;2022-07-12T00:01:41;388.58;;;356.90;;
21213;SDS011;10764;50.850;2.904;2022-07-12T00:04:08;291.75;;;268.17;;
21213;SDS011;10764;50.850;2.904;2022-07-12T00:06:35;202.18;;;186.65;;
21213;SDS011;10764;50.850;2.904;2022-07-12T00:09:02;79.53;;;74.20;;
21213;SDS011;10764;50.850;2.904;2022-07-12T00:11:30;71.80;;;67.13;;
21213;SDS011;10764;50.850;2.904;2022-07-12T00:13:57;128.15;;;119.25;;
21213;SDS011;10764;50.850;2.904;2022-07-12T00:16:25;102.40;;;95.30;;
21213;SDS011;10764;50.850;2.904;2022-07-12T00:18:51;158.60;;;147.03;;
21213;SDS011;10764;50.850;2.904;2022-07-12T00:21:19;149.40;;;138.40;;
21213;SDS011;10764;50.850;2.904;2022-07-12T00:23:47;183.47;;;169.60;;
21213;SDS011;10764;50.850;2.904;2022-07-12T00:26:14;222.85;;;205.57;;
21213;SDS011;10764;50.850;2.904;2022-07-12T00:28:41;200.55;;;185.15;;
21213;SDS011;10764;50.850;2.904;2022-07-12T00:31:09;134.27;;;124.97;;
21213;SDS011;10764;50.850;2.904;2022-07-12T00:33:36;117.53;;;109.53;;
21213;SDS011;10764;50.850;2.904;2022-07-12T00:36:03;90.65;;;84.72;;
21213;SDS011;10764;50.850;2.904;2022-07-12T00:38:30;88.20;;;82.50;;
21213;SDS011;10764;50.850;2.904;2022-07-12T00:40:57;86.18;;;80.53;;
21213;SDS011;10764;50.850;2.904;2022-07-12T00:43:25;38.67;;;36.23;;
21213;SDS011;10764;50.850;2.904;2022-07-12T00:45:52;29.47;;;27.67;;
21213;SDS011;10764;50.850;2.904;2022-07-12T00:48:19;21.77;;;20.48;;
21213;SDS011;10764;50.850;2.904;2022-07-12T00:50:46;30.38;;;28.40;;
21213;SDS011;10764;50.850;2.904;2022-07-12T00:53:14;37.13;;;34.72;;
21213;SDS011;10764;50.850;2.904;2022-07-12T00:55:42;17.05;;;15.85;;
21213;SDS011;10764;50.850;2.904;2022-07-12T00:58:09;18.83;;;17.70;;
21213;SDS011;10764;50.850;2.904;2022-07-12T01:00:36;76.30;;;71.35;;
21213;SDS011;10764;50.850;2.904;2022-07-12T01:03:03;64.03;;;59.85;;
21213;SDS011;10764;50.850;2.904;2022-07-12T01:05:30;64.93;;;60.60;;
21213;SDS011;10764;50.850;2.904;2022-07-12T01:07:57;69.53;;;65.03;;
21213;SDS011;10764;50.850;2.904;2022-07-12T01:10:24;62.17;;;58.07;;
21213;SDS011;10764;50.850;2.904;2022-07-12T01:12:51;37.92;;;35.47;;
21213;SDS011;10764;50.850;2.904;2022-07-12T01:15:20;6.97;;;6.47;;
21213;SDS011;10764;50.850;2.904;2022-07-12T01:17:47;14.77;;;13.68;;
21213;SDS011;10764;50.850;2.904;2022-07-12T01:20:18;13.87;;;12.67;;
21213;SDS011;10764;50.850;2.904;2022-07-12T01:22:55;17.40;;;16.08;;
21213;SDS011;10764;50.850;2.904;2022-07-12T01:25:24;31.10;;;29.08;;
21213;SDS011;10764;50.850;2.904;2022-07-12T01:27:51;52.08;;;48.55;;
21213;SDS011;10764;50.850;2.904;2022-07-12T01:30:19;20.15;;;18.73;;
21213;SDS011;10764;50.850;2.904;2022-07-12T01:32:46;16.27;;;15.18;;
21213;SDS011;10764;50.850;2.904;2022-07-12T01:35:14;19.90;;;18.38;;
21213;SDS011;10764;50.850;2.904;2022-07-12T01:37:41;25.35;;;23.77;;
21213;SDS011;10764;50.850;2.904;2022-07-12T01:40:09;16.25;;;15.18;;
21213;SDS011;10764;50.850;2.904;2022-07-12T01:42:40;27.95;;;26.17;;
21213;SDS011;10764;50.850;2.904;2022-07-12T01:45:09;32.92;;;30.83;;
21213;SDS011;10764;50.850;2.904;2022-07-12T01:47:37;42.55;;;39.75;;
21213;SDS011;10764;50.850;2.904;2022-07-12T01:50:05;71.22;;;66.55;;
21213;SDS011;10764;50.850;2.904;2022-07-12T01:52:33;70.03;;;65.32;;
21213;SDS011;10764;50.850;2.904;2022-07-12T01:55:01;70.68;;;66.13;;
21213;SDS011;10764;50.850;2.904;2022-07-12T01:57:30;73.27;;;68.43;;
21213;SDS011;10764;50.850;2.904;2022-07-12T01:59:59;97.72;;;91.22;;
21213;SDS011;10764;50.850;2.904;2022-07-12T02:02:32;86.10;;;80.50;;
21213;SDS011;10764;50.850;2.904;2022-07-12T02:05:00;67.82;;;63.42;;
21213;SDS011;10764;50.850;2.904;2022-07-12T02:07:27;62.58;;;58.53;;
21213;SDS011;10764;50.850;2.904;2022-07-12T02:09:55;88.65;;;82.80;;
21213;SDS011;10764;50.850;2.904;2022-07-12T02:12:22;42.17;;;39.45;;
21213;SDS011;10764;50.850;2.904;2022-07-12T02:14:49;117.32;;;109.20;;
21213;SDS011;10764;50.850;2.904;2022-07-12T02:17:16;77.95;;;72.85;;
21213;SDS011;10764;50.850;2.904;2022-07-12T02:19:43;82.95;;;77.53;;
21213;SDS011;10764;50.850;2.904;2022-07-12T02:22:10;149.48;;;138.85;;
21213;SDS011;10764;50.850;2.904;2022-07-12T02:24:38;171.07;;;158.48;;
21213;SDS011;10764;50.850;2.904;2022-07-12T02:27:05;178.52;;;165.35;;
21213;SDS011;10764;50.850;2.904;2022-07-12T02:29:32;205.82;;;190.10;;
21213;SDS011;10764;50.850;2.904;2022-07-12T02:31:59;196.90;;;182.10;;
21213;SDS011;10764;50.850;2.904;2022-07-12T02:34:27;173.93;;;161.05;;
21213;SDS011;10764;50.850;2.904;2022-07-12T02:36:54;181.20;;;167.75;;
21213;SDS011;10764;50.850;2.904;2022-07-12T02:39:21;176.60;;;163.50;;
21213;SDS011;10764;50.850;2.904;2022-07-12T02:41:47;232.43;;;214.25;;
21213;SDS011;10764;50.850;2.904;2022-07-12T02:44:15;292.55;;;268.85;;
21213;SDS011;10764;50.850;2.904;2022-07-12T02:46:42;320.52;;;294.50;;
21213;SDS011;10764;50.850;2.904;2022-07-12T02:49:09;308.23;;;283.33;;
21213;SDS011;10764;50.850;2.904;2022-07-12T02:51:36;339.15;;;311.52;;
21213;SDS011;10764;50.850;2.904;2022-07-12T02:54:02;430.17;;;395.00;;
21213;SDS011;10764;50.850;2.904;2022-07-12T02:56:29;420.15;;;385.63;;
21213;SDS011;10764;50.850;2.904;2022-07-12T02:58:56;493.60;;;453.42;;
21213;SDS011;10764;50.850;2.904;2022-07-12T03:01:23;628.65;;;576.90;;
21213;SDS011;10764;50.850;2.904;2022-07-12T03:03:50;556.40;;;511.35;;
21213;SDS011;10764;50.850;2.904;2022-07-12T03:06:16;549.57;;;505.33;;
21213;SDS011;10764;50.850;2.904;2022-07-12T03:08:43;635.85;;;584.25;;
21213;SDS011;10764;50.850;2.904;2022-07-12T03:11:10;848.78;;;783.63;;
21213;SDS011;10764;50.850;2.904;2022-07-12T03:13:37;783.63;;;722.20;;
21213;SDS011;10764;50.850;2.904;2022-07-12T03:16:05;686.77;;;631.67;;
21213;SDS011;10764;50.850;2.904;2022-07-12T03:18:34;925.00;;;855.27;;
21213;SDS011;10764;50.850;2.904;2022-07-12T03:21:01;1081.75;;;999.25;;
21213;SDS011;10764;50.850;2.904;2022-07-12T03:23:28;166.73;;;154.10;;
21213;SDS011;10764;50.850;2.904;2022-07-12T03:25:55;530.63;;;487.40;;
21213;SDS011;10764;50.850;2.904;2022-07-12T03:28:22;800.92;;;738.10;;
21213;SDS011;10764;50.850;2.904;2022-07-12T03:30:49;342.87;;;315.30;;
21213;SDS011;10764;50.850;2.904;2022-07-12T03:33:16;677.40;;;622.88;;
21213;SDS011;10764;50.850;2.904;2022-07-12T03:35:43;454.38;;;417.55;;
21213;SDS011;10764;50.850;2.904;2022-07-12T03:38:10;444.63;;;408.45;;
21213;SDS011;10764;50.850;2.904;2022-07-12T03:40:37;170.55;;;157.95;;
21213;SDS011;10764;50.850;2.904;2022-07-12T03:43:04;99.80;;;93.00;;
21213;SDS011;10764;50.850;2.904;2022-07-12T03:45:31;48.70;;;45.42;;
21213;SDS011;10764;50.850;2.904;2022-07-12T03:47:58;76.60;;;71.50;;
21213;SDS011;10764;50.850;2.904;2022-07-12T03:50:25;143.65;;;133.40;;
21213;SDS011;10764;50.850;2.904;2022-07-12T03:52:51;159.95;;;148.25;;
21213;SDS011;10764;50.850;2.904;2022-07-12T03:55:19;165.38;;;153.20;;
21213;SDS011;10764;50.850;2.904;2022-07-12T03:57:48;110.43;;;102.67;;
21213;SDS011;10764;50.850;2.904;2022-07-12T04:00:15;119.82;;;111.20;;
21213;SDS011;10764;50.850;2.904;2022-07-12T04:02:42;66.95;;;62.05;;
21213;SDS011;10764;50.850;2.904;2022-07-12T04:05:09;156.65;;;145.30;;
21213;SDS011;10764;50.850;2.904;2022-07-12T04:07:37;169.10;;;156.50;;
21213;SDS011;10764;50.850;2.904;2022-07-12T04:10:06;209.70;;;193.60;;
21213;SDS011;10764;50.850;2.904;2022-07-12T04:12:34;332.50;;;305.67;;
21213;SDS011;10764;50.850;2.904;2022-07-12T04:15:03;237.40;;;218.43;;
21213;SDS011;10764;50.850;2.904;2022-07-12T04:17:31;338.67;;;311.27;;
21213;SDS011;10764;50.850;2.904;2022-07-12T04:19:58;447.25;;;410.40;;
21213;SDS011;10764;50.850;2.904;2022-07-12T04:22:25;312.73;;;287.08;;
21213;SDS011;10764;50.850;2.904;2022-07-12T04:24:51;302.97;;;278.17;;
21213;SDS011;10764;50.850;2.904;2022-07-12T04:27:18;297.33;;;273.42;;
21213;SDS011;10764;50.850;2.904;2022-07-12T04:29:45;303.38;;;278.88;;
21213;SDS011;10764;50.850;2.904;2022-07-12T04:32:12;413.40;;;379.90;;
21213;SDS011;10764;50.850;2.904;2022-07-12T04:34:39;681.33;;;626.50;;
21213;SDS011;10764;50.850;2.904;2022-07-12T04:37:07;615.78;;;564.03;;
21213;SDS011;10764;50.850;2.904;2022-07-12T04:39:35;606.33;;;556.50;;
21213;SDS011;10764;50.850;2.904;2022-07-12T04:42:05;732.70;;;673.28;;
21213;SDS011;10764;50.850;2.904;2022-07-12T04:44:32;805.63;;;742.07;;
21213;SDS011;10764;50.850;2.904;2022-07-12T04:46:58;829.50;;;764.40;;
21213;SDS011;10764;50.850;2.904;2022-07-12T04:49:25;866.20;;;798.97;;
21213;SDS011;10764;50.850;2.904;2022-07-12T04:51:52;900.15;;;830.85;;
21213;SDS011;10764;50.850;2.904;2022-07-12T04:54:19;906.53;;;836.67;;
21213;SDS011;10764;50.850;2.904;2022-07-12T04:56:46;822.92;;;758.22;;
21213;SDS011;10764;50.850;2.904;2022-07-12T04:59:13;759.80;;;698.90;;
21213;SDS011;10764;50.850;2.904;2022-07-12T05:01:40;773.53;;;711.78;;
21213;SDS011;10764;50.850;2.904;2022-07-12T05:04:07;747.53;;;687.42;;
21213;SDS011;10764;50.850;2.904;2022-07-12T05:06:34;767.15;;;704.78;;
21213;SDS011;10764;50.850;2.904;2022-07-12T05:09:01;809.17;;;744.83;;
21213;SDS011;10764;50.850;2.904;2022-07-12T05:11:28;1040.40;;;961.38;;
21213;SDS011;10764;50.850;2.904;2022-07-12T05:13:55;784.38;;;722.05;;
21213;SDS011;10764;50.850;2.904;2022-07-12T05:16:21;573.97;;;526.63;;
21213;SDS011;10764;50.850;2.904;2022-07-12T05:18:48;673.72;;;620.17;;
21213;SDS011;10764;50.850;2.904;2022-07-12T05:21:15;944.70;;;872.00;;
21213;SDS011;10764;50.850;2.904;2022-07-12T05:23:42;1095.75;;;999.90;;
21213;SDS011;10764;50.850;2.904;2022-07-12T05:26:09;1146.78;;;999.90;;
21213;SDS011;10764;50.850;2.904;2022-07-12T05:28:42;1159.30;;;999.90;;
21213;SDS011;10764;50.850;2.904;2022-07-12T05:31:09;1170.83;;;999.90;;
21213;SDS011;10764;50.850;2.904;2022-07-12T05:33:36;1169.40;;;999.90;;
21213;SDS011;10764;50.850;2.904;2022-07-12T05:36:03;1187.43;;;999.90;;
21213;SDS011;10764;50.850;2.904;2022-07-12T05:38:30;1180.85;;;999.90;;
21213;SDS011;10764;50.850;2.904;2022-07-12T05:40:58;1185.65;;;999.90;;
21213;SDS011;10764;50.850;2.904;2022-07-12T05:43:24;1188.75;;;999.90;;
21213;SDS011;10764;50.850;2.904;2022-07-12T05:45:52;1156.90;;;999.90;;
21213;SDS011;10764;50.850;2.904;2022-07-12T05:48:19;1174.78;;;999.90;;
21213;SDS011;10764;50.850;2.904;2022-07-12T05:50:46;403.60;;;371.17;;
21213;SDS011;10764;50.850;2.904;2022-07-12T05:53:13;1187.95;;;999.90;;
21213;SDS011;10764;50.850;2.904;2022-07-12T05:55:53;1178.67;;;999.90;;
21213;SDS011;10764;50.850;2.904;2022-07-12T05:58:20;2.80;;;2.30;;
21213;SDS011;10764;50.850;2.904;2022-07-12T06:00:47;1105.95;;;999.03;;
21213;SDS011;10764;50.850;2.904;2022-07-12T06:03:15;1115.20;;;988.63;;
21213;SDS011;10764;50.850;2.904;2022-07-12T06:05:42;1015.53;;;930.83;;
21213;SDS011;10764;50.850;2.904;2022-07-12T06:08:09;1191.60;;;999.90;;
21213;SDS011;10764;50.850;2.904;2022-07-12T06:10:36;1185.20;;;999.90;;
21213;SDS011;10764;50.850;2.904;2022-07-12T06:13:03;1152.43;;;999.90;;
21213;SDS011;10764;50.850;2.904;2022-07-12T06:15:31;1159.47;;;999.90;;
21213;SDS011;10764;50.850;2.904;2022-07-12T06:18:01;1158.15;;;999.90;;
21213;SDS011;10764;50.850;2.904;2022-07-12T06:20:29;1144.90;;;999.90;;
21213;SDS011;10764;50.850;2.904;2022-07-12T06:22:57;1139.43;;;999.90;;
21213;SDS011;10764;50.850;2.904;2022-07-12T06:25:24;1167.93;;;999.90;;
21213;SDS011;10764;50.850;2.904;2022-07-12T06:28:08;1195.20;;;999.90;;
21213;SDS011;10764;50.850;2.904;2022-07-12T06:30:35;1186.22;;;999.90;;
21213;SDS011;10764;50.850;2.904;2022-07-12T06:33:03;1200.07;;;999.90;;
21213;SDS011;10764;50.850;2.904;2022-07-12T06:35:30;1183.43;;;999.90;;
21213;SDS011;10764;50.850;2.904;2022-07-12T06:37:56;1189.15;;;999.90;;
21213;SDS011;10764;50.850;2.904;2022-07-12T06:40:23;1195.00;;;999.90;;
21213;SDS011;10764;50.850;2.904;2022-07-12T06:42:50;1162.97;;;999.90;;
21213;SDS011;10764;50.850;2.904;2022-07-12T06:45:18;1165.47;;;999.90;;
21213;SDS011;10764;50.850;2.904;2022-07-12T06:47:45;1167.70;;;999.90;;
21213;SDS011;10764;50.850;2.904;2022-07-12T06:50:13;1155.05;;;999.90;;
21213;SDS011;10764;50.850;2.904;2022-07-12T06:52:40;1160.57;;;999.90;;
21213;SDS011;10764;50.850;2.904;2022-07-12T06:55:07;1141.90;;;999.90;;
21213;SDS011;10764;50.850;2.904;2022-07-12T06:57:34;6.75;;;4.57;;
21213;SDS011;10764;50.850;2.904;2022-07-12T07:00:04;6.82;;;4.80;;
21213;SDS011;10764;50.850;2.904;2022-07-12T07:02:32;8.68;;;4.68;;
21213;SDS011;10764;50.850;2.904;2022-07-12T07:04:59;7.57;;;3.00;;
21213;SDS011;10764;50.850;2.904;2022-07-12T07:07:26;5.15;;;2.78;;
21213;SDS011;10764;50.850;2.904;2022-07-12T07:09:53;9.17;;;7.40;;
21213;SDS011;10764;50.850;2.904;2022-07-12T07:12:20;6.88;;;2.58;;
21213;SDS011;10764;50.850;2.904;2022-07-12T07:14:47;5.22;;;2.35;;
21213;SDS011;10764;50.850;2.904;2022-07-12T07:17:15;5.65;;;2.47;;
21213;SDS011;10764;50.850;2.904;2022-07-12T07:19:43;4.03;;;2.55;;
21213;SDS011;10764;50.850;2.904;2022-07-12T07:22:11;95.45;;;88.65;;
21213;SDS011;10764;50.850;2.904;2022-07-12T07:24:39;23.48;;;21.77;;
21213;SDS011;10764;50.850;2.904;2022-07-12T07:27:06;82.82;;;76.93;;
21213;SDS011;10764;50.850;2.904;2022-07-12T07:29:34;44.33;;;40.60;;
21213;SDS011;10764;50.850;2.904;2022-07-12T07:32:20;4.45;;;2.90;;
21213;SDS011;10764;50.850;2.904;2022-07-12T07:34:47;1187.05;;;999.90;;
21213;SDS011;10764;50.850;2.904;2022-07-12T07:37:13;1207.27;;;999.90;;
21213;SDS011;10764;50.850;2.904;2022-07-12T07:39:40;1177.50;;;999.90;;
21213;SDS011;10764;50.850;2.904;2022-07-12T07:42:07;1188.93;;;999.90;;
21213;SDS011;10764;50.850;2.904;2022-07-12T07:44:34;1178.38;;;999.90;;
21213;SDS011;10764;50.850;2.904;2022-07-12T07:47:21;1210.97;;;999.90;;
21213;SDS011;10764;50.850;2.904;2022-07-12T07:49:48;1215.80;;;999.90;;
21213;SDS011;10764;50.850;2.904;2022-07-12T07:52:15;1174.55;;;999.90;;
21213;SDS011;10764;50.850;2.904;2022-07-12T07:54:42;1185.67;;;999.90;;
21213;SDS011;10764;50.850;2.904;2022-07-12T07:57:09;1191.57;;;999.90;;
21213;SDS011;10764;50.850;2.904;2022-07-12T07:59:36;1198.97;;;999.90;;
21213;SDS011;10764;50.850;2.904;2022-07-12T08:02:03;1205.10;;;999.90;;
21213;SDS011;10764;50.850;2.904;2022-07-12T08:04:30;1206.82;;;999.90;;
21213;SDS011;10764;50.850;2.904;2022-07-12T08:06:57;1217.47;;;999.90;;
21213;SDS011;10764;50.850;2.904;2022-07-12T08:09:25;1221.32;;;999.90;;
21213;SDS011;10764;50.850;2.904;2022-07-12T08:11:51;1211.20;;;999.90;;
21213;SDS011;10764;50.850;2.904;2022-07-12T08:14:18;1201.93;;;999.90;;
21213;SDS011;10764;50.850;2.904;2022-07-12T08:16:45;1193.63;;;999.90;;
21213;SDS011;10764;50.850;2.904;2022-07-12T08:19:12;1192.68;;;999.90;;
21213;SDS011;10764;50.850;2.904;2022-07-12T08:21:39;1188.07;;;999.90;;
21213;SDS011;10764;50.850;2.904;2022-07-12T08:24:06;1202.55;;;999.90;;
21213;SDS011;10764;50.850;2.904;2022-07-12T08:26:33;1199.30;;;999.90;;
21213;SDS011;10764;50.850;2.904;2022-07-12T08:28:59;1199.15;;;999.90;;
21213;SDS011;10764;50.850;2.904;2022-07-12T08:31:26;1193.07;;;999.90;;
21213;SDS011;10764;50.850;2.904;2022-07-12T08:33:53;1197.28;;;999.90;;
21213;SDS011;10764;50.850;2.904;2022-07-12T08:36:20;1194.43;;;999.90;;
21213;SDS011;10764;50.850;2.904;2022-07-12T08:38:47;1193.38;;;999.90;;
21213;SDS011;10764;50.850;2.904;2022-07-12T08:41:14;1190.37;;;999.90;;
21213;SDS011;10764;50.850;2.904;2022-07-12T08:43:41;1190.07;;;999.90;;
21213;SDS011;10764;50.850;2.904;2022-07-12T08:46:09;1206.93;;;999.90;;
21213;SDS011;10764;50.850;2.904;2022-07-12T08:48:38;1205.10;;;999.90;;
21213;SDS011;10764;50.850;2.904;2022-07-12T08:51:07;614.38;;;549.65;;
21213;SDS011;10764;50.850;2.904;2022-07-12T08:53:36;1207.03;;;999.90;;
21213;SDS011;10764;50.850;2.904;2022-07-12T08:56:03;1208.47;;;999.90;;
21213;SDS011;10764;50.850;2.904;2022-07-12T08:58:31;1211.63;;;999.90;;
21213;SDS011;10764;50.850;2.904;2022-07-12T09:00:58;666.30;;;601.45;;
21213;SDS011;10764;50.850;2.904;2022-07-12T09:03:26;245.48;;;222.68;;
21213;SDS011;10764;50.850;2.904;2022-07-12T09:05:55;140.23;;;126.53;;
21213;SDS011;10764;50.850;2.904;2022-07-12T09:08:24;165.83;;;151.20;;
21213;SDS011;10764;50.850;2.904;2022-07-12T09:10:56;5.30;;;4.80;;
21213;SDS011;10764;50.850;2.904;2022-07-12T09:13:52;3.42;;;2.85;;
21213;SDS011;10764;50.850;2.904;2022-07-12T09:16:22;2.72;;;1.92;;
21213;SDS011;10764;50.850;2.904;2022-07-12T09:18:50;2.75;;;1.90;;
21213;SDS011;10764;50.850;2.904;2022-07-12T09:21:37;2.55;;;2.13;;
21213;SDS011;10764;50.850;2.904;2022-07-12T09:24:05;2.57;;;1.80;;
21213;SDS011;10764;50.850;2.904;2022-07-12T09:26:38;3.47;;;1.77;;
21213;SDS011;10764;50.850;2.904;2022-07-12T09:29:06;2.53;;;1.98;;
21213;SDS011;10764;50.850;2.904;2022-07-12T09:31:38;1.98;;;1.77;;
21213;SDS011;10764;50.850;2.904;2022-07-12T09:34:06;2.00;;;1.80;;
21213;SDS011;10764;50.850;2.904;2022-07-12T09:36:54;2.90;;;1.70;;
21213;SDS011;10764;50.850;2.904;2022-07-12T09:39:22;1.70;;;1.60;;
21213;SDS011;10764;50.850;2.904;2022-07-12T09:41:52;2.53;;;1.80;;
21213;SDS011;10764;50.850;2.904;2022-07-12T09:44:20;2.10;;;1.63;;
21213;SDS011;10764;50.850;2.904;2022-07-12T09:46:47;1.85;;;1.50;;
21213;SDS011;10764;50.850;2.904;2022-07-12T09:49:15;1.80;;;1.70;;
21213;SDS011;10764;50.850;2.904;2022-07-12T09:51:51;1.90;;;1.70;;
21213;SDS011;10764;50.850;2.904;2022-07-12T09:54:26;2.05;;;1.40;;
21213;SDS011;10764;50.850;2.904;2022-07-12T09:57:00;2.92;;;1.70;;
21213;SDS011;10764;50.850;2.904;2022-07-12T09:59:29;2.63;;;1.50;;
21213;SDS011;10764;50.850;2.904;2022-07-12T10:02:01;2.20;;;1.70;;
21213;SDS011;10764;50.850;2.904;2022-07-12T10:04:30;1.90;;;1.50;;
21213;SDS011;10764;50.850;2.904;2022-07-12T10:06:58;1.80;;;1.55;;
21213;SDS011;10764;50.850;2.904;2022-07-12T10:09:27;1.90;;;1.60;;
21213;SDS011;10764;50.850;2.904;2022-07-12T10:11:54;1.70;;;1.50;;
21213;SDS011;10764;50.850;2.904;2022-07-12T10:14:26;1.65;;;1.55;;
21213;SDS011;10764;50.850;2.904;2022-07-12T10:16:53;2.53;;;1.80;;
21213;SDS011;10764;50.850;2.904;2022-07-12T10:19:29;1.77;;;1.65;;
21213;SDS011;10764;50.850;2.904;2022-07-12T10:21:59;1.55;;;1.38;;
21213;SDS011;10764;50.850;2.904;2022-07-12T10:27:02;2.50;;;1.48;;
21213;SDS011;10764;50.850;2.904;2022-07-12T10:29:47;2.00;;;1.50;;
21213;SDS011;10764;50.850;2.904;2022-07-12T10:35:02;1.50;;;1.40;;
21213;SDS011;10764;50.850;2.904;2022-07-12T10:37:37;1.42;;;1.20;;
21213;SDS011;10764;50.850;2.904;2022-07-12T10:40:11;1.75;;;1.48;;
21213;SDS011;10764;50.850;2.904;2022-07-12T10:45:31;1.88;;;1.40;;
21213;SDS011;10764;50.850;2.904;2022-07-12T10:48:02;1.83;;;1.40;;
21213;SDS011;10764;50.850;2.904;2022-07-12T10:53:22;1.90;;;1.40;;
21213;SDS011;10764;50.850;2.904;2022-07-12T10:58:45;1.73;;;1.40;;
21213;SDS011;10764;50.850;2.904;2022-07-12T11:01:13;1.67;;;1.30;;
21213;SDS011;10764;50.850;2.904;2022-07-12T11:03:55;1.40;;;1.10;;
21213;SDS011;10764;50.850;2.904;2022-07-12T11:06:34;2.92;;;1.20;;
21213;SDS011;10764;50.850;2.904;2022-07-12T11:09:10;2.20;;;1.30;;
21213;SDS011;10764;50.850;2.904;2022-07-12T11:11:45;2.55;;;1.23;;
21213;SDS011;10764;50.850;2.904;2022-07-12T11:14:22;2.17;;;1.40;;
21213;SDS011;10764;50.850;2.904;2022-07-12T11:16:50;1.75;;;1.17;;
21213;SDS011;10764;50.850;2.904;2022-07-12T11:19:25;1.90;;;1.30;;
21213;SDS011;10764;50.850;2.904;2022-07-12T11:21:55;2.60;;;1.30;;
21213;SDS011;10764;50.850;2.904;2022-07-12T11:24:30;2.22;;;1.20;;
21213;SDS011;10764;50.850;2.904;2022-07-12T11:26:58;2.50;;;1.27;;
21213;SDS011;10764;50.850;2.904;2022-07-12T11:29:26;3.08;;;1.35;;
21213;SDS011;10764;50.850;2.904;2022-07-12T11:32:00;2.33;;;1.27;;
21213;SDS011;10764;50.850;2.904;2022-07-12T11:34:36;2.33;;;1.40;;
21213;SDS011;10764;50.850;2.904;2022-07-12T11:37:04;2.17;;;1.30;;
21213;SDS011;10764;50.850;2.904;2022-07-12T11:39:34;2.00;;;1.20;;
21213;SDS011;10764;50.850;2.904;2022-07-12T11:42:06;2.50;;;1.33;;
21213;SDS011;10764;50.850;2.904;2022-07-12T11:47:10;1.77;;;1.20;;
21213;SDS011;10764;50.850;2.904;2022-07-12T11:49:47;2.22;;;1.25;;
21213;SDS011;10764;50.850;2.904;2022-07-12T11:52:17;2.05;;;1.20;;
21213;SDS011;10764;50.850;2.904;2022-07-12T11:54:46;1.35;;;1.05;;
21213;SDS011;10764;50.850;2.904;2022-07-12T11:57:14;2.53;;;1.00;;
21213;SDS011;10764;50.850;2.904;2022-07-12T11:59:44;2.53;;;1.10;;
21213;SDS011;10764;50.850;2.904;2022-07-12T12:02:12;1.75;;;1.10;;
21213;SDS011;10764;50.850;2.904;2022-07-12T12:04:45;1.42;;;1.20;;
21213;SDS011;10764;50.850;2.904;2022-07-12T12:07:22;2.90;;;1.00;;
21213;SDS011;10764;50.850;2.904;2022-07-12T12:12:46;1.00;;;0.80;;
21213;SDS011;10764;50.850;2.904;2022-07-12T12:15:16;2.10;;;1.10;;
21213;SDS011;10764;50.850;2.904;2022-07-12T12:18:05;1.20;;;0.93;;
21213;SDS011;10764;50.850;2.904;2022-07-12T12:20:36;1.23;;;1.00;;
21213;SDS011;10764;50.850;2.904;2022-07-12T12:23:05;1.95;;;1.17;;
21213;SDS011;10764;50.850;2.904;2022-07-12T12:25:40;1.55;;;1.13;;
21213;SDS011;10764;50.850;2.904;2022-07-12T12:28:07;2.17;;;0.95;;
21213;SDS011;10764;50.850;2.904;2022-07-12T12:30:50;1.95;;;1.13;;
21213;SDS011;10764;50.850;2.904;2022-07-12T12:36:12;1.80;;;0.93;;
21213;SDS011;10764;50.850;2.904;2022-07-12T12:38:45;1.13;;;1.00;;
21213;SDS011;10764;50.850;2.904;2022-07-12T12:41:12;1.73;;;1.00;;
21213;SDS011;10764;50.850;2.904;2022-07-12T12:43:40;0.90;;;0.80;;
21213;SDS011;10764;50.850;2.904;2022-07-12T12:46:08;2.03;;;1.00;;
21213;SDS011;10764;50.850;2.904;2022-07-12T12:48:35;1.50;;;0.93;;
21213;SDS011;10764;50.850;2.904;2022-07-12T12:53:37;1.10;;;0.80;;
21213;SDS011;10764;50.850;2.904;2022-07-12T12:56:06;1.60;;;0.88;;
21213;SDS011;10764;50.850;2.904;2022-07-12T12:58:37;1.10;;;0.80;;
21213;SDS011;10764;50.850;2.904;2022-07-12T13:01:06;0.98;;;0.70;;
21213;SDS011;10764;50.850;2.904;2022-07-12T13:03:34;1.00;;;0.80;;
21213;SDS011;10764;50.850;2.904;2022-07-12T13:06:01;7.60;;;1.10;;
21213;SDS011;10764;50.850;2.904;2022-07-12T13:08:28;1.40;;;0.70;;
21213;SDS011;10764;50.850;2.904;2022-07-12T13:10:55;1.85;;;0.85;;
21213;SDS011;10764;50.850;2.904;2022-07-12T13:13:41;0.75;;;0.60;;
21213;SDS011;10764;50.850;2.904;2022-07-12T13:16:08;1.73;;;0.90;;
21213;SDS011;10764;50.850;2.904;2022-07-12T13:18:35;2.17;;;0.80;;
21213;SDS011;10764;50.850;2.904;2022-07-12T13:21:02;1.70;;;0.90;;
21213;SDS011;10764;50.850;2.904;2022-07-12T13:23:29;1.60;;;0.77;;
21213;SDS011;10764;50.850;2.904;2022-07-12T13:25:56;1.40;;;0.80;;
21213;SDS011;10764;50.850;2.904;2022-07-12T13:28:23;1.10;;;0.80;;
21213;SDS011;10764;50.850;2.904;2022-07-12T13:30:50;1.92;;;0.80;;
21213;SDS011;10764;50.850;2.904;2022-07-12T13:33:21;1.20;;;0.60;;
21213;SDS011;10764;50.850;2.904;2022-07-12T13:35:48;1.65;;;0.80;;
21213;SDS011;10764;50.850;2.904;2022-07-12T13:38:16;2.05;;;0.90;;
21213;SDS011;10764;50.850;2.904;2022-07-12T13:40:43;2.30;;;1.00;;
21213;SDS011;10764;50.850;2.904;2022-07-12T13:43:10;1.75;;;0.93;;
21213;SDS011;10764;50.850;2.904;2022-07-12T13:45:37;2.15;;;0.70;;
21213;SDS011;10764;50.850;2.904;2022-07-12T13:48:04;1.50;;;0.90;;
21213;SDS011;10764;50.850;2.904;2022-07-12T13:50:31;2.03;;;0.95;;
21213;SDS011;10764;50.850;2.904;2022-07-12T13:52:58;1.55;;;0.80;;
21213;SDS011;10764;50.850;2.904;2022-07-12T13:55:26;1.55;;;0.75;;
21213;SDS011;10764;50.850;2.904;2022-07-12T13:57:54;1.35;;;0.88;;
21213;SDS011;10764;50.850;2.904;2022-07-12T14:00:22;1.23;;;0.70;;
21213;SDS011;10764;50.850;2.904;2022-07-12T14:02:49;2.70;;;0.90;;
21213;SDS011;10764;50.850;2.904;2022-07-12T14:05:20;2.15;;;0.90;;
21213;SDS011;10764;50.850;2.904;2022-07-12T14:07:47;1.37;;;0.80;;
21213;SDS011;10764;50.850;2.904;2022-07-12T14:10:14;1.80;;;0.80;;
21213;SDS011;10764;50.850;2.904;2022-07-12T14:12:42;1.37;;;0.80;;
21213;SDS011;10764;50.850;2.904;2022-07-12T14:15:09;2.22;;;1.20;;
21213;SDS011;10764;50.850;2.904;2022-07-12T14:17:41;2.20;;;1.00;;
21213;SDS011;10764;50.850;2.904;2022-07-12T14:20:19;1.88;;;0.90;;
21213;SDS011;10764;50.850;2.904;2022-07-12T14:22:47;2.50;;;0.90;;
21213;SDS011;10764;50.850;2.904;2022-07-12T14:25:15;2.03;;;0.90;;
21213;SDS011;10764;50.850;2.904;2022-07-12T14:27:43;3.22;;;1.00;;
21213;SDS011;10764;50.850;2.904;2022-07-12T14:30:10;1.98;;;0.80;;
21213;SDS011;10764;50.850;2.904;2022-07-12T14:32:40;2.15;;;1.00;;
21213;SDS011;10764;50.850;2.904;2022-07-12T14:35:08;2.40;;;0.97;;
21213;SDS011;10764;50.850;2.904;2022-07-12T14:37:36;2.55;;;1.00;;
21213;SDS011;10764;50.850;2.904;2022-07-12T14:40:04;3.07;;;1.00;;
21213;SDS011;10764;50.850;2.904;2022-07-12T14:42:31;3.40;;;1.10;;
21213;SDS011;10764;50.850;2.904;2022-07-12T14:44:58;3.20;;;1.02;;
21213;SDS011;10764;50.850;2.904;2022-07-12T14:47:25;2.15;;;0.90;;
21213;SDS011;10764;50.850;2.904;2022-07-12T14:49:52;2.45;;;1.05;;
21213;SDS011;10764;50.850;2.904;2022-07-12T14:52:23;2.10;;;1.00;;